Time;durP1;ratioP1;P1;durP2;ratioP2;P2;SDS_P1;SDS_P2;PMS_P1;PMS_P2;Temp;Humidity;BMP_temperature;BMP_pressure;BME280_temperature;BME280_humidity;BME280_pressure;Samples;Min_cycle;Max_cycle;Signal;HPM_P1;HPM_P2
2021/05/31 00:00:42;;;;;;;5.23;3.73;;;8.70;99.90;;;;;;4223459;28;20051;-64
2021/05/31 00:02:47;;;;;;;6.17;4.00;;;8.70;99.90;;;;;;4225091;28;20023;-64
2021/05/31 00:04:48;;;;;;;13.90;4.57;;;8.70;99.90;;;;;;4224572;28;20039;-66
2021/05/31 00:06:53;;;;;;;6.90;3.63;;;8.60;99.90;;;;;;4226113;28;20039;-63
2021/05/31 00:08:54;;;;;;;5.17;3.97;;;8.60;99.90;;;;;;4224250;28;20526;-63
2021/05/31 00:10:55;;;;;;;7.93;4.00;;;8.60;99.90;;;;;;4225772;28;20023;-63
2021/05/31 00:12:57;;;;;;;6.10;4.50;;;8.60;99.90;;;;;;4223909;28;20061;-64
2021/05/31 00:14:58;;;;;;;5.10;4.00;;;8.60;99.90;;;;;;4225628;28;20031;-67
2021/05/31 00:16:59;;;;;;;5.83;4.13;;;8.60;99.90;;;;;;4223986;28;20901;-64
2021/05/31 00:19:00;;;;;;;6.20;4.50;;;8.60;99.90;;;;;;4225502;28;20089;-66
2021/05/31 00:21:01;;;;;;;5.87;4.03;;;8.60;99.90;;;;;;4224606;28;20047;-65
2021/05/31 00:23:02;;;;;;;5.27;3.87;;;8.60;99.90;;;;;;4224190;28;20087;-64
2021/05/31 00:25:06;;;;;;;5.17;4.00;;;8.60;99.90;;;;;;4225021;28;20471;-64
2021/05/31 00:27:07;;;;;;;4.90;3.70;;;8.60;99.90;;;;;;4222451;28;20075;-67
2021/05/31 00:29:08;;;;;;;4.57;3.80;;;8.50;99.90;;;;;;4224706;28;20039;-63
2021/05/31 00:31:10;;;;;;;6.37;3.90;;;8.50;99.90;;;;;;4224239;28;20035;-65
2021/05/31 00:33:11;;;;;;;6.10;4.10;;;8.40;99.90;;;;;;4225259;28;20559;-64
2021/05/31 00:35:13;;;;;;;5.50;4.03;;;8.40;99.90;;;;;;4224137;28;20090;-66
2021/05/31 00:37:15;;;;;;;4.97;3.43;;;8.40;99.90;;;;;;4225793;28;20031;-65
2021/05/31 00:39:21;;;;;;;5.20;3.80;;;8.40;99.90;;;;;;4223304;28;20108;-63
2021/05/31 00:41:23;;;;;;;7.23;4.33;;;8.40;99.90;;;;;;4225195;28;20443;-64
2021/05/31 00:43:29;;;;;;;4.43;3.67;;;8.30;99.90;;;;;;4224277;28;20028;-64
2021/05/31 00:45:30;;;;;;;5.50;4.17;;;8.30;99.90;;;;;;4224628;28;20097;-66
2021/05/31 00:47:31;;;;;;;5.40;3.83;;;8.30;99.90;;;;;;4223631;28;20089;-63
2021/05/31 00:49:37;;;;;;;4.40;3.90;;;8.30;99.90;;;;;;4225489;28;20051;-63
2021/05/31 00:51:38;;;;;;;4.53;3.30;;;8.30;99.90;;;;;;4224073;28;20019;-64
2021/05/31 00:53:40;;;;;;;6.60;3.80;;;8.30;99.90;;;;;;4224186;28;20057;-66
2021/05/31 00:55:41;;;;;;;5.57;4.03;;;8.30;99.90;;;;;;4224557;28;20041;-63
2021/05/31 00:57:42;;;;;;;7.77;3.93;;;8.30;99.90;;;;;;4223970;28;20036;-65
2021/05/31 00:59:43;;;;;;;5.03;3.77;;;8.30;99.90;;;;;;4224339;28;20077;-61
2021/05/31 01:01:46;;;;;;;6.90;4.03;;;8.30;99.90;;;;;;4223764;28;20657;-62
2021/05/31 01:03:47;;;;;;;4.93;3.77;;;8.20;99.90;;;;;;4224123;28;20020;-66
2021/05/31 01:05:50;;;;;;;4.80;3.90;;;8.20;99.90;;;;;;4223400;28;20109;-65
2021/05/31 01:07:59;;;;;;;5.47;4.30;;;8.20;99.90;;;;;;4224610;28;20024;-63
2021/05/31 01:11:02;;;;;;;9.93;4.33;;;8.10;99.90;;;;;;4223814;28;20061;-66
2021/05/31 01:13:37;;;;;;;7.43;3.87;;;8.10;99.90;;;;;;4171175;28;20037;-66
2021/05/31 01:15:45;;;;;;;9.93;4.00;;;8.00;99.90;;;;;;4171172;28;20099;-63
2021/05/31 01:18:04;;;;;;;6.03;4.50;;;8.00;99.90;;;;;;4177308;28;20040;-65
2021/05/31 01:20:09;;;;;;;5.20;3.70;;;8.00;99.90;;;;;;4207756;28;20077;-63
2021/05/31 01:22:11;;;;;;;6.60;3.93;;;7.90;99.90;;;;;;4222072;28;20441;-63
2021/05/31 01:24:50;;;;;;;8.17;4.00;;;8.00;99.90;;;;;;4224630;28;20036;-66
2021/05/31 01:27:08;;;;;;;6.97;4.00;;;7.90;99.90;;;;;;4155310;28;20045;-64
2021/05/31 01:29:12;;;;;;;5.57;3.73;;;7.90;99.90;;;;;;4222215;28;20503;-62
2021/05/31 01:31:16;;;;;;;5.87;3.43;;;7.90;99.90;;;;;;4223139;28;20073;-66
2021/05/31 01:33:22;;;;;;;4.73;3.40;;;7.90;99.90;;;;;;4222932;28;20707;-65
2021/05/31 01:35:34;;;;;;;5.80;3.97;;;7.90;99.90;;;;;;4221218;28;20708;-66
2021/05/31 01:37:38;;;;;;;4.27;3.60;;;7.90;99.90;;;;;;4224284;28;20023;-67
2021/05/31 01:39:41;;;;;;;8.70;3.43;;;7.90;99.90;;;;;;4222543;28;20028;-64
2021/05/31 01:41:43;;;;;;;5.97;3.67;;;7.90;99.90;;;;;;4224204;28;20035;-65
2021/05/31 01:43:46;;;;;;;5.07;3.90;;;7.80;99.90;;;;;;4221846;28;20076;-64
2021/05/31 01:45:47;;;;;;;6.07;3.63;;;7.80;99.90;;;;;;4224616;28;20049;-65
2021/05/31 01:47:50;;;;;;;4.93;3.77;;;7.80;99.90;;;;;;4222604;28;20035;-63
2021/05/31 01:49:51;;;;;;;6.40;4.43;;;7.80;99.90;;;;;;4222505;28;20043;-65
2021/05/31 01:51:53;;;;;;;5.23;3.80;;;7.80;99.90;;;;;;4223135;28;20049;-65
2021/05/31 01:53:54;;;;;;;4.67;3.47;;;7.70;99.90;;;;;;4223891;28;20035;-66
2021/05/31 01:55:56;;;;;;;3.83;3.43;;;7.70;99.90;;;;;;4221337;28;20044;-64
2021/05/31 01:57:57;;;;;;;6.37;3.87;;;7.70;99.90;;;;;;4223136;28;20097;-62
2021/05/31 01:59:59;;;;;;;4.10;3.67;;;7.70;99.90;;;;;;4223093;28;20088;-64
2021/05/31 02:02:00;;;;;;;5.90;3.87;;;7.70;99.90;;;;;;4222830;28;20857;-63
2021/05/31 02:04:01;;;;;;;4.33;3.90;;;7.70;99.90;;;;;;4223527;28;20471;-65
2021/05/31 02:06:03;;;;;;;4.80;3.63;;;7.70;99.90;;;;;;4222069;28;20031;-63
2021/05/31 02:08:05;;;;;;;4.70;3.63;;;7.70;99.90;;;;;;4207045;28;20491;-62
2021/05/31 02:10:10;;;;;;;5.23;3.57;;;7.80;99.90;;;;;;4205714;28;20040;-65
2021/05/31 02:12:13;;;;;;;6.87;4.00;;;7.80;99.90;;;;;;4207200;28;20562;-62
2021/05/31 02:14:23;;;;;;;6.30;4.30;;;7.80;99.90;;;;;;4204074;28;20032;-62
2021/05/31 02:16:32;;;;;;;5.10;3.67;;;7.80;99.90;;;;;;4222297;28;20081;-63
2021/05/31 02:18:42;;;;;;;5.97;4.00;;;7.80;99.90;;;;;;4221829;28;20027;-62
2021/05/31 02:20:45;;;;;;;4.88;3.63;;;7.80;99.90;;;;;;4223918;28;20535;-63
2021/05/31 02:22:54;;;;;;;5.07;3.63;;;7.80;99.90;;;;;;4223238;28;20043;-65
2021/05/31 02:24:55;;;;;;;6.17;3.80;;;7.80;99.90;;;;;;4227164;28;20024;-64
2021/05/31 02:26:58;;;;;;;6.20;4.07;;;7.80;99.90;;;;;;4226128;28;20104;-62
2021/05/31 02:28:59;;;;;;;6.63;4.20;;;7.80;99.90;;;;;;4227636;28;20032;-62
2021/05/31 02:31:03;;;;;;;7.77;4.10;;;7.80;99.90;;;;;;4225875;28;21179;-65
2021/05/31 02:33:05;;;;;;;8.47;4.07;;;7.80;99.90;;;;;;4227335;28;20089;-65
2021/05/31 02:35:10;;;;;;;8.97;4.80;;;7.80;99.90;;;;;;4225054;28;20107;-64
2021/05/31 02:37:13;;;;;;;6.83;3.87;;;7.80;99.90;;;;;;4227194;28;20024;-64
2021/05/31 02:39:16;;;;;;;13.13;4.33;;;7.80;99.90;;;;;;4218231;28;20061;-63
2021/05/31 02:41:17;;;;;;;10.90;4.40;;;7.70;99.90;;;;;;4210048;28;20047;-65
2021/05/31 02:43:18;;;;;;;11.53;4.23;;;7.80;99.90;;;;;;4209437;28;20059;-60
2021/05/31 02:45:23;;;;;;;8.30;4.03;;;7.70;99.90;;;;;;4209452;28;20028;-62
2021/05/31 02:47:24;;;;;;;8.20;4.00;;;7.80;99.90;;;;;;4222315;28;20023;-62
2021/05/31 02:49:25;;;;;;;8.93;4.17;;;7.80;99.90;;;;;;4225798;28;20032;-62
2021/05/31 02:51:26;;;;;;;10.53;4.73;;;7.80;99.90;;;;;;4226647;28;20065;-65
2021/05/31 02:53:29;;;;;;;12.77;5.37;;;8.00;99.90;;;;;;4225366;28;20069;-63
2021/05/31 02:55:31;;;;;;;7.17;4.50;;;8.20;99.90;;;;;;4225702;28;20092;-66
2021/05/31 02:57:33;;;;;;;5.80;4.43;;;8.40;99.90;;;;;;4225056;28;20797;-65
2021/05/31 02:59:34;;;;;;;6.27;4.27;;;8.60;99.90;;;;;;4226631;28;20053;-62
2021/05/31 03:01:35;;;;;;;7.20;4.00;;;8.80;99.90;;;;;;4224496;28;20121;-63
2021/05/31 03:03:36;;;;;;;5.03;3.57;;;8.90;99.90;;;;;;4227087;28;20027;-63
2021/05/31 03:05:38;;;;;;;4.67;3.60;;;9.10;99.90;;;;;;4225547;28;20084;-66
2021/05/31 03:07:39;;;;;;;5.43;3.83;;;9.20;99.90;;;;;;4226246;28;20085;-67
2021/05/31 03:09:40;;;;;;;4.07;3.57;;;9.50;99.90;;;;;;4225802;28;20104;-64
2021/05/31 03:11:41;;;;;;;4.20;3.47;;;9.70;99.90;;;;;;4226355;28;20063;-67
2021/05/31 03:13:42;;;;;;;7.33;3.70;;;10.00;99.90;;;;;;4225786;28;20027;-67
2021/05/31 03:15:43;;;;;;;6.47;3.80;;;10.40;99.90;;;;;;4225736;28;20544;-67
2021/05/31 03:17:46;;;;;;;5.97;3.37;;;10.70;99.90;;;;;;4225540;28;20140;-64
2021/05/31 03:19:48;;;;;;;3.77;2.93;;;11.00;99.90;;;;;;4224751;28;20496;-63
2021/05/31 03:21:49;;;;;;;5.53;4.10;;;11.10;99.90;;;;;;4225976;28;20093;-66
2021/05/31 03:23:50;;;;;;;11.93;3.40;;;11.30;99.90;;;;;;4224923;28;20036;-65
2021/05/31 03:25:51;;;;;;;4.13;3.13;;;11.40;99.90;;;;;;4225555;28;20047;-67
2021/05/31 03:27:53;;;;;;;4.03;3.47;;;11.40;99.90;;;;;;4225350;28;20032;-63
2021/05/31 03:29:54;;;;;;;3.83;2.70;;;11.40;99.90;;;;;;4226609;28;20028;-67
2021/05/31 03:31:56;;;;;;;9.03;2.90;;;11.20;99.90;;;;;;4224803;28;20089;-66
2021/05/31 03:33:57;;;;;;;5.13;2.30;;;10.90;99.90;;;;;;4225963;28;20965;-64
2021/05/31 03:35:58;;;;;;;4.37;3.00;;;10.60;99.90;;;;;;4223058;28;20043;-65
2021/05/31 03:37:59;;;;;;;5.83;2.57;;;10.50;99.90;;;;;;4223319;28;20039;-64
2021/05/31 03:40:01;;;;;;;5.17;3.37;;;10.40;99.90;;;;;;4219480;28;20031;-63
2021/05/31 03:42:02;;;;;;;5.23;3.30;;;10.30;99.90;;;;;;4207811;28;20052;-66
2021/05/31 03:44:04;;;;;;;4.37;3.13;;;10.20;99.90;;;;;;4207419;28;20028;-65
2021/05/31 03:46:05;;;;;;;5.97;3.23;;;10.10;99.90;;;;;;4209268;28;20152;-67
2021/05/31 03:48:06;;;;;;;7.27;3.63;;;10.20;99.90;;;;;;4210488;28;20035;-67
2021/05/31 03:50:08;;;;;;;6.50;3.37;;;10.30;99.90;;;;;;4225145;28;20088;-67
2021/05/31 03:52:09;;;;;;;4.20;3.23;;;10.40;99.90;;;;;;4225199;28;20027;-66
2021/05/31 03:54:11;;;;;;;4.20;2.83;;;10.90;99.90;;;;;;4224730;28;20031;-65
2021/05/31 03:56:12;;;;;;;4.87;2.80;;;11.50;99.90;;;;;;4221115;28;20152;-64
2021/05/31 03:58:13;;;;;;;4.60;2.80;;;11.90;99.90;;;;;;4211778;28;20578;-64
2021/05/31 04:00:15;;;;;;;4.73;2.70;;;12.20;99.90;;;;;;4225893;28;20080;-65
2021/05/31 04:02:17;;;;;;;3.17;2.17;;;12.60;99.90;;;;;;4222521;28;20191;-67
2021/05/31 04:04:20;;;;;;;3.17;2.33;;;12.90;99.90;;;;;;4208774;28;20044;-64
2021/05/31 04:06:34;;;;;;;5.70;2.60;;;12.80;99.90;;;;;;4207310;28;20089;-67
2021/05/31 04:13:15;;;;;;;2.90;2.50;;;12.40;99.90;;;;;;4208484;28;20036;-66
2021/05/31 04:15:16;;;;;;;3.47;2.53;;;12.10;99.90;;;;;;4213488;28;20027;-63
2021/05/31 04:17:17;;;;;;;2.43;2.23;;;11.90;99.90;;;;;;4225044;28;20081;-65
2021/05/31 04:19:20;;;;;;;4.43;1.97;;;11.70;99.90;;;;;;4224067;28;20439;-64
2021/05/31 04:21:21;;;;;;;3.47;2.23;;;11.70;99.90;;;;;;4225044;28;20544;-66
2021/05/31 04:23:23;;;;;;;3.40;2.40;;;11.80;99.90;;;;;;4223840;28;20069;-65
2021/05/31 04:25:24;;;;;;;5.47;2.57;;;11.90;99.90;;;;;;4224850;28;20097;-66
2021/05/31 04:27:26;;;;;;;5.73;2.07;;;12.00;99.90;;;;;;4222696;28;20495;-67
2021/05/31 04:29:27;;;;;;;5.47;2.17;;;12.20;99.90;;;;;;4224855;28;20069;-66
2021/05/31 04:31:28;;;;;;;2.77;1.93;;;12.50;99.90;;;;;;4223552;28;20103;-65
2021/05/31 04:33:29;;;;;;;3.80;2.43;;;12.60;99.90;;;;;;4224581;28;20035;-65
2021/05/31 04:35:30;;;;;;;4.63;2.57;;;12.50;99.90;;;;;;4223446;28;20040;-65
2021/05/31 04:37:33;;;;;;;5.73;2.33;;;12.50;99.90;;;;;;4222092;28;20058;-63
2021/05/31 04:39:34;;;;;;;2.93;2.40;;;12.40;99.90;;;;;;4223883;28;20438;-64
2021/05/31 04:41:37;;;;;;;2.63;2.43;;;12.30;99.90;;;;;;4223181;28;20047;-68
2021/05/31 04:43:39;;;;;;;5.20;3.13;;;12.20;99.90;;;;;;4223749;28;20678;-67
2021/05/31 04:45:40;;;;;;;4.67;2.63;;;12.10;99.90;;;;;;4222599;28;20532;-66
2021/05/31 04:47:41;;;;;;;5.93;3.20;;;12.10;99.90;;;;;;4223966;28;20024;-65
2021/05/31 04:49:42;;;;;;;4.87;2.87;;;12.30;99.90;;;;;;4221868;28;20160;-68
2021/05/31 04:51:43;;;;;;;4.40;2.47;;;12.30;99.90;;;;;;4224128;28;20039;-68
2021/05/31 04:53:45;;;;;;;7.37;3.20;;;12.50;99.90;;;;;;4223589;28;20047;-67
2021/05/31 04:55:46;;;;;;;3.53;2.33;;;12.50;99.90;;;;;;4225131;28;20417;-68
2021/05/31 04:57:47;;;;;;;2.27;2.07;;;12.60;99.90;;;;;;4223622;28;20039;-67
2021/05/31 04:59:48;;;;;;;7.83;2.30;;;12.60;99.90;;;;;;4224901;28;20035;-68
2021/05/31 05:01:49;;;;;;;6.83;2.03;;;12.60;99.90;;;;;;4223457;28;20168;-64
2021/05/31 05:03:50;;;;;;;5.77;1.80;;;12.50;99.90;;;;;;4224172;28;20058;-65
2021/05/31 05:05:51;;;;;;;4.43;2.47;;;12.60;99.90;;;;;;4222412;28;20019;-68
2021/05/31 05:07:52;;;;;;;3.23;1.97;;;12.50;99.90;;;;;;4222900;27;20032;-66
2021/05/31 05:09:54;;;;;;;4.07;2.20;;;12.60;99.90;;;;;;4223296;28;20088;-66
2021/05/31 05:11:55;;;;;;;6.27;2.70;;;12.50;99.90;;;;;;4223554;28;20024;-68
2021/05/31 05:13:56;;;;;;;6.10;2.73;;;12.50;99.90;;;;;;4222951;28;20066;-67
2021/05/31 05:15:57;;;;;;;5.00;2.50;;;12.50;99.90;;;;;;4222720;28;20439;-69
2021/05/31 05:17:58;;;;;;;2.63;2.43;;;12.40;99.90;;;;;;4224174;28;20564;-64
2021/05/31 05:19:59;;;;;;;6.07;2.40;;;12.40;99.90;;;;;;4222109;28;20039;-65
2021/05/31 05:22:01;;;;;;;3.43;2.67;;;12.40;99.90;;;;;;4223675;28;20035;-68
2021/05/31 05:24:02;;;;;;;8.30;2.47;;;12.60;99.90;;;;;;4221950;28;20031;-63
2021/05/31 05:26:03;;;;;;;5.90;2.53;;;12.80;99.90;;;;;;4218090;28;20163;-64
2021/05/31 05:28:05;;;;;;;5.03;3.30;;;12.90;99.90;;;;;;4206810;28;20032;-63
2021/05/31 05:30:06;;;;;;;4.70;2.87;;;13.00;99.90;;;;;;4208033;28;20036;-65
2021/05/31 05:32:08;;;;;;;2.70;2.47;;;13.10;99.90;;;;;;4206518;28;20036;-61
2021/05/31 05:34:09;;;;;;;9.03;3.13;;;13.30;99.90;;;;;;4207594;28;20036;-65
2021/05/31 05:36:43;;;;;;;4.07;2.43;;;13.50;99.90;;;;;;4206878;28;20615;-62
2021/05/31 05:49:14;;;;;;;6.82;3.50;;;15.00;99.90;;;;;;4206830;28;20032;-64
2021/05/31 05:51:15;;;;;;;4.30;2.97;;;15.60;99.90;;;;;;4207533;28;20036;-68
2021/05/31 05:53:16;;;;;;;8.97;3.40;;;15.90;99.90;;;;;;4206146;28;20086;-64
2021/05/31 05:55:17;;;;;;;10.03;4.10;;;16.20;99.90;;;;;;4206511;28;20085;-65
2021/05/31 05:57:19;;;;;;;6.93;3.70;;;16.40;99.90;;;;;;4205896;28;20044;-67
2021/05/31 05:59:20;;;;;;;6.55;3.88;;;16.50;99.90;;;;;;4205677;28;20081;-63
2021/05/31 06:01:21;;;;;;;5.60;3.85;;;16.90;99.90;;;;;;4221361;28;20031;-66
2021/05/31 06:03:22;;;;;;;5.40;3.53;;;17.40;99.90;;;;;;4209982;28;20024;-62
2021/05/31 06:05:24;;;;;;;16.15;6.22;;;18.00;99.90;;;;;;4217868;28;20085;-67
2021/05/31 06:07:26;;;;;;;13.18;5.28;;;17.90;99.90;;;;;;4221427;28;20440;-67
2021/05/31 06:09:27;;;;;;;12.00;6.45;;;17.20;99.90;;;;;;4217597;28;20085;-64
2021/05/31 06:11:28;;;;;;;17.23;7.57;;;16.40;99.90;;;;;;4204696;28;20819;-63
2021/05/31 06:13:30;;;;;;;14.05;4.70;;;16.20;99.90;;;;;;4215064;28;20032;-63
2021/05/31 06:15:31;;;;;;;7.50;4.57;;;16.20;99.90;;;;;;4209976;28;20031;-65
2021/05/31 06:17:32;;;;;;;7.03;4.20;;;15.50;99.90;;;;;;4229432;28;20046;-68
2021/05/31 06:19:34;;;;;;;8.38;5.45;;;15.20;99.90;;;;;;4207803;28;20098;-68
2021/05/31 06:21:36;;;;;;;9.45;4.68;;;15.00;99.90;;;;;;4222357;28;20502;-67
2021/05/31 06:23:37;;;;;;;7.47;4.50;;;15.20;99.90;;;;;;4218609;28;20090;-68
2021/05/31 06:25:38;;;;;;;7.88;4.60;;;15.10;99.90;;;;;;4206186;28;20090;-65
2021/05/31 06:27:39;;;;;;;6.97;4.50;;;15.00;99.90;;;;;;4210405;28;20036;-67
2021/05/31 06:29:40;;;;;;;6.20;4.70;;;14.80;99.90;;;;;;4208914;28;20082;-64
2021/05/31 06:31:41;;;;;;;5.07;3.73;;;14.60;99.90;;;;;;4208240;28;20574;-66
2021/05/31 06:33:43;;;;;;;6.13;4.60;;;14.50;99.90;;;;;;4205448;28;20462;-64
2021/05/31 06:35:45;;;;;;;5.47;4.60;;;14.70;99.90;;;;;;4206584;28;20032;-66
2021/05/31 06:37:46;;;;;;;6.67;5.10;;;14.70;99.90;;;;;;4206061;28;20024;-66
2021/05/31 06:39:47;;;;;;;6.03;4.37;;;14.50;99.90;;;;;;4205628;28;20137;-65
2021/05/31 06:41:49;;;;;;;6.27;4.67;;;14.50;99.90;;;;;;4205676;28;20032;-64
2021/05/31 06:43:51;;;;;;;6.57;4.27;;;14.40;99.90;;;;;;4205710;28;20028;-67
2021/05/31 06:45:52;;;;;;;5.33;4.57;;;14.40;99.90;;;;;;4213240;28;20052;-68
2021/05/31 06:47:56;;;;;;;7.63;4.17;;;14.40;99.90;;;;;;4205325;28;20079;-63
2021/05/31 06:49:57;;;;;;;5.17;4.40;;;14.70;99.90;;;;;;4204455;28;20028;-67
2021/05/31 06:51:58;;;;;;;5.97;4.47;;;15.10;99.90;;;;;;4221246;28;20032;-69
2021/05/31 06:53:59;;;;;;;4.37;3.50;;;15.60;99.90;;;;;;4221021;28;20116;-62
2021/05/31 06:56:00;;;;;;;7.63;4.03;;;15.90;99.90;;;;;;4205004;28;20040;-66
2021/05/31 06:58:01;;;;;;;8.50;4.40;;;16.30;99.90;;;;;;4205696;28;20568;-66
2021/05/31 07:00:06;;;;;;;3.92;3.53;;;16.40;99.90;;;;;;4206181;28;20074;-68
2021/05/31 07:02:07;;;;;;;5.73;3.57;;;16.80;99.90;;;;;;4204111;28;20048;-65
2021/05/31 07:04:08;;;;;;;8.50;3.55;;;16.60;99.90;;;;;;4207146;28;20040;-63
2021/05/31 07:06:10;;;;;;;5.07;3.83;;;16.60;99.90;;;;;;4220942;28;20910;-66
2021/05/31 07:08:11;;;;;;;5.85;4.25;;;16.40;99.90;;;;;;4210847;28;20043;-65
2021/05/31 07:19:09;;;;;;;5.90;3.47;;;16.50;99.90;;;;;;4938103;23;20921;-70
2021/05/31 07:21:11;;;;;;;3.50;3.20;;;16.10;99.90;;;;;;4120875;28;20117;-72
2021/05/31 07:23:12;;;;;;;3.67;3.25;;;15.60;99.90;;;;;;4117641;28;20124;-70
2021/05/31 07:25:16;;;;;;;6.32;3.80;;;15.10;99.90;;;;;;4122326;28;20105;-65
2021/05/31 07:27:18;;;;;;;4.45;3.92;;;15.00;99.90;;;;;;4126363;28;20102;-66
2021/05/31 07:29:19;;;;;;;3.72;3.20;;;14.90;99.90;;;;;;4127059;28;20438;-69
2021/05/31 07:31:20;;;;;;;3.55;3.20;;;14.90;99.90;;;;;;4125831;28;20038;-67
2021/05/31 07:33:21;;;;;;;4.65;2.97;;;15.00;99.90;;;;;;4126876;28;20034;-70
2021/05/31 07:35:22;;;;;;;5.50;3.50;;;15.50;99.90;;;;;;4126016;28;20042;-74
2021/05/31 07:37:23;;;;;;;3.92;2.72;;;16.00;99.90;;;;;;4126756;28;20050;-68
2021/05/31 07:39:24;;;;;;;5.35;3.00;;;16.10;99.90;;;;;;4125609;28;20093;-65
2021/05/31 07:41:25;;;;;;;6.32;2.78;;;16.10;99.90;;;;;;4123211;28;20050;-67
2021/05/31 07:43:26;;;;;;;3.85;2.67;;;16.20;99.90;;;;;;4125022;28;20141;-66
2021/05/31 07:45:27;;;;;;;3.63;1.77;;;16.30;99.90;;;;;;4126536;28;20030;-68
2021/05/31 07:47:29;;;;;;;1.85;1.60;;;16.30;99.90;;;;;;4125167;28;20557;-72
2021/05/31 07:49:30;;;;;;;1.88;1.60;;;16.40;99.90;;;;;;4126214;28;20023;-68
2021/05/31 07:51:32;;;;;;;3.35;2.30;;;16.40;99.90;;;;;;4126851;28;20097;-69
2021/05/31 07:53:33;;;;;;;3.25;1.70;;;16.50;99.90;;;;;;4125434;28;20027;-67
2021/05/31 07:55:34;;;;;;;16.23;3.90;;;16.60;99.90;;;;;;4125391;28;20042;-67
2021/05/31 07:57:35;;;;;;;3.45;2.20;;;16.60;99.90;;;;;;4120430;28;20077;-68
2021/05/31 07:59:36;;;;;;;8.07;4.45;;;16.60;99.90;;;;;;4119750;28;20097;-68
2021/05/31 08:01:37;;;;;;;6.40;2.50;;;16.60;99.90;;;;;;4125353;28;20430;-67
2021/05/31 08:03:40;;;;;;;12.40;3.05;;;16.60;99.90;;;;;;4120429;28;20089;-68
2021/05/31 08:05:41;;;;;;;3.55;2.10;;;16.50;99.90;;;;;;4125287;28;20030;-66
2021/05/31 08:07:46;;;;;;;3.63;1.77;;;16.30;99.90;;;;;;4121732;28;20411;-72
2021/05/31 08:09:48;;;;;;;2.70;1.00;;;16.20;99.90;;;;;;4109289;28;20097;-68
2021/05/31 08:11:49;;;;;;;3.90;1.60;;;16.10;99.90;;;;;;4109929;28;20043;-66
2021/05/31 08:13:50;;;;;;;2.08;1.38;;;16.40;99.90;;;;;;4092064;29;20495;-65
2021/05/31 08:15:53;;;;;;;1.45;1.25;;;16.60;99.90;;;;;;4110046;28;20030;-69
2021/05/31 08:17:54;;;;;;;1.52;1.42;;;16.50;99.90;;;;;;4109132;28;20408;-69
2021/05/31 08:19:55;;;;;;;3.03;1.70;;;16.40;99.90;;;;;;4109500;28;20818;-68
2021/05/31 08:21:56;;;;;;;2.42;1.52;;;16.50;99.90;;;;;;4092556;28;20539;-66
2021/05/31 08:23:57;;;;;;;3.28;1.63;;;16.60;99.90;;;;;;4109435;28;20030;-65
2021/05/31 08:25:58;;;;;;;11.63;2.70;;;16.50;99.90;;;;;;4109270;28;20081;-67
2021/05/31 08:28:02;;;;;;;9.05;2.95;;;16.50;99.90;;;;;;4108815;28;20105;-68
2021/05/31 08:30:04;;;;;;;6.05;2.15;;;16.40;99.90;;;;;;4116166;28;20601;-66
2021/05/31 08:32:05;;;;;;;2.35;1.88;;;16.30;99.90;;;;;;4124277;28;20399;-69
2021/05/31 08:34:07;;;;;;;14.50;2.38;;;16.20;99.90;;;;;;4125772;28;20038;-65
2021/05/31 08:36:08;;;;;;;3.28;1.30;;;16.20;99.90;;;;;;4124530;28;20085;-68
2021/05/31 08:38:10;;;;;;;3.67;1.52;;;16.20;99.90;;;;;;4126067;28;20100;-72
2021/05/31 08:40:11;;;;;;;3.00;0.95;;;16.00;99.90;;;;;;4116034;28;20090;-68
2021/05/31 08:42:12;;;;;;;4.30;1.48;;;15.90;99.90;;;;;;4109953;28;20030;-71
2021/05/31 08:44:13;;;;;;;2.00;1.27;;;15.90;99.90;;;;;;4108533;28;20127;-71
2021/05/31 08:46:14;;;;;;;2.53;1.10;;;15.90;99.90;;;;;;4109369;28;20082;-72
2021/05/31 08:48:17;;;;;;;5.78;1.30;;;15.90;99.90;;;;;;4108603;28;20047;-74
2021/05/31 08:50:21;;;;;;;2.03;1.25;;;15.90;99.90;;;;;;4109506;28;20402;-66
2021/05/31 08:52:22;;;;;;;9.20;3.72;;;15.70;99.90;;;;;;4110198;28;20039;-65
2021/05/31 08:54:23;;;;;;;3.67;2.00;;;15.70;99.90;;;;;;4109124;28;20030;-71
2021/05/31 08:56:24;;;;;;;19.80;3.30;;;15.70;99.90;;;;;;4109825;28;20471;-66
2021/05/31 08:58:26;;;;;;;9.23;2.90;;;15.90;99.90;;;;;;4108817;28;20456;-64
2021/05/31 09:00:31;;;;;;;18.05;3.00;;;16.10;99.90;;;;;;4109336;28;20035;-65
2021/05/31 09:02:34;;;;;;;10.65;2.13;;;16.50;99.90;;;;;;4107585;28;20043;-65
2021/05/31 09:04:47;;;;;;;9.65;1.50;;;16.80;99.90;;;;;;4108649;28;20102;-66
2021/05/31 09:07:00;;;;;;;9.77;1.95;;;17.10;99.90;;;;;;4108123;28;20089;-67
2021/05/31 09:09:02;;;;;;;1.63;1.48;;;17.10;99.90;;;;;;4109286;28;20066;-66
2021/05/31 09:11:07;;;;;;;9.63;1.60;;;16.70;99.90;;;;;;4122327;28;20113;-65
2021/05/31 09:13:08;;;;;;;3.35;1.55;;;16.60;99.90;;;;;;4124514;28;20065;-63
2021/05/31 09:15:11;;;;;;;2.05;1.40;;;16.50;99.90;;;;;;4112294;28;20125;-65
2021/05/31 09:17:26;;;;;;;17.58;3.85;;;16.70;99.90;;;;;;4109316;28;20066;-65
2021/05/31 09:19:27;;;;;;;7.10;1.88;;;16.80;99.90;;;;;;4090364;29;20043;-72
2021/05/31 09:21:30;;;;;;;6.85;2.10;;;17.20;99.90;;;;;;4110801;28;20054;-65
2021/05/31 09:23:37;;;;;;;3.03;1.80;;;17.70;99.90;;;;;;4107743;28;20042;-66
2021/05/31 09:25:38;;;;;;;5.05;1.70;;;18.20;99.90;;;;;;4112756;28;20046;-69
2021/05/31 09:27:50;;;;;;;6.68;2.08;;;18.20;99.90;;;;;;4122776;28;20592;-66
2021/05/31 09:29:57;;;;;;;2.45;1.10;;;17.90;99.90;;;;;;4122962;28;20050;-68
2021/05/31 09:32:01;;;;;;;1.50;1.20;;;17.40;99.90;;;;;;4119736;28;20430;-66
2021/05/31 09:34:11;;;;;;;1.67;1.17;;;16.80;99.90;;;;;;4122610;28;20391;-65
2021/05/31 09:36:12;;;;;;;15.55;3.80;;;16.40;99.90;;;;;;4122820;28;20092;-64
2021/05/31 09:38:15;;;;;;;8.70;1.50;;;16.10;99.90;;;;;;4118081;28;20553;-71
2021/05/31 09:40:23;;;;;;;2.05;1.45;;;16.00;99.90;;;;;;4106819;28;20031;-64
2021/05/31 09:42:24;;;;;;;3.13;1.30;;;15.90;99.90;;;;;;4107987;28;20038;-68
2021/05/31 09:44:28;;;;;;;5.32;1.15;;;15.90;99.90;;;;;;4112359;28;20030;-66
2021/05/31 09:46:37;;;;;;;5.03;1.08;;;16.00;99.90;;;;;;4109238;28;20545;-67
2021/05/31 09:48:39;;;;;;;8.48;2.08;;;16.10;99.90;;;;;;4107192;28;20050;-65
2021/05/31 09:50:41;;;;;;;2.85;1.20;;;16.20;99.90;;;;;;4107359;28;20101;-65
2021/05/31 09:52:43;;;;;;;2.60;1.17;;;16.60;99.90;;;;;;4107554;28;20031;-67
2021/05/31 09:54:49;;;;;;;1.05;0.70;;;16.80;99.90;;;;;;4106974;28;20031;-66
2021/05/31 09:56:50;;;;;;;1.10;1.00;;;16.60;99.90;;;;;;4107575;28;20106;-66
2021/05/31 09:59:01;;;;;;;1.08;0.57;;;16.40;99.90;;;;;;4088825;29;20102;-67
2021/05/31 10:01:03;;;;;;;1.27;0.88;;;16.30;99.90;;;;;;4107239;28;20022;-68
2021/05/31 10:09:40;;;;;;;4.13;1.08;;;16.60;99.90;;;;;;4107681;28;20102;-65
2021/05/31 10:11:42;;;;;;;7.18;0.93;;;16.80;99.90;;;;;;4107501;28;20042;-69
2021/05/31 10:13:44;;;;;;;0.70;0.65;;;16.80;99.90;;;;;;4115043;28;20147;-66
2021/05/31 10:15:45;;;;;;;1.70;0.70;;;16.80;99.90;;;;;;4105237;28;20038;-67
2021/05/31 10:17:47;;;;;;;0.82;0.73;;;16.70;99.90;;;;;;4107536;28;20027;-73
2021/05/31 10:19:49;;;;;;;2.05;0.88;;;16.60;99.90;;;;;;4105618;28;20026;-67
2021/05/31 10:21:50;;;;;;;5.32;0.98;;;16.50;99.90;;;;;;4111055;28;20113;-65
2021/05/31 10:23:53;;;;;;;3.40;0.88;;;16.50;99.90;;;;;;4121900;28;20097;-69
2021/05/31 10:25:59;;;;;;;5.45;1.38;;;16.60;99.90;;;;;;4122502;28;20513;-65
2021/05/31 10:28:08;;;;;;;12.43;2.15;;;16.70;99.90;;;;;;4121882;28;20034;-67
2021/05/31 10:30:12;;;;;;;0.90;0.90;;;17.00;99.90;;;;;;4123116;28;20439;-67
2021/05/31 10:32:14;;;;;;;0.70;0.50;;;17.10;99.90;;;;;;4122264;28;20081;-64
2021/05/31 10:34:25;;;;;;;5.63;2.17;;;17.10;99.90;;;;;;4121611;28;20061;-64
2021/05/31 10:36:34;;;;;;;3.95;0.88;;;17.20;99.90;;;;;;4121718;28;20034;-66
2021/05/31 10:38:37;;;;;;;2.50;0.63;;;17.30;99.90;;;;;;4123027;28;20038;-64
2021/05/31 10:40:45;;;;;;;7.65;1.52;;;17.40;99.90;;;;;;4122044;28;20042;-64
2021/05/31 10:42:46;;;;;;;4.78;1.10;;;17.50;99.90;;;;;;4122254;28;20038;-70
2021/05/31 10:44:47;;;;;;;2.20;1.00;;;17.60;99.90;;;;;;4122324;28;20042;-64
2021/05/31 10:46:48;;;;;;;1.40;0.75;;;17.50;99.90;;;;;;4125536;28;20038;-65
2021/05/31 10:48:51;;;;;;;3.75;0.90;;;17.40;99.90;;;;;;4125160;28;20441;-71
2021/05/31 10:50:59;;;;;;;0.95;0.80;;;17.30;99.90;;;;;;4125583;28;20092;-70
2021/05/31 10:53:00;;;;;;;1.10;0.70;;;17.10;99.90;;;;;;4124781;28;20051;-64
2021/05/31 10:55:09;;;;;;;4.43;0.50;;;17.00;99.90;;;;;;4125335;28;20030;-65
2021/05/31 10:57:10;;;;;;;2.67;0.90;;;16.90;99.90;;;;;;4126110;28;20034;-65
2021/05/31 10:59:22;;;;;;;3.28;0.80;;;16.90;99.90;;;;;;4107437;28;20841;-68
2021/05/31 11:01:26;;;;;;;6.38;1.48;;;17.00;99.90;;;;;;4126093;28;20042;-67
2021/05/31 11:03:28;;;;;;;1.08;0.68;;;17.00;99.90;;;;;;4107143;28;20619;-70
2021/05/31 11:05:33;;;;;;;17.13;2.20;;;17.20;99.90;;;;;;4123602;28;20599;-65
2021/05/31 11:07:35;;;;;;;4.05;0.95;;;17.40;99.90;;;;;;4124573;28;20109;-65
2021/05/31 11:09:36;;;;;;;2.35;0.80;;;17.50;99.90;;;;;;4125556;28;20038;-69
2021/05/31 11:11:42;;;;;;;7.90;1.70;;;17.70;99.60;;;;;;4123907;28;20039;-66